ADDS TAF Board (Experimental) INFO

IDs: Format: Expanded Condensed

Updated at: 1700 UTC 30 Jan 2015

KCLE - Cleveland/Hopkins In, OH, US

Issued at 1407 UTC 30 Jan 2015
Time1651Z30/17Z30/18Z30/19Z30/20Z30/21Z30/22Z30/23Z31/00Z31/01Z31/02Z31/03Z31/04Z31/05Z
TypeOBSPRVLPRVLPRVLPRVLPRVLPRVLPRVLPRVLPRVLPRVLPRVLPRVLPRVL
VIS10>6>6>6>6>6>6>6>6>6>6>6>6>6
CIG35353535353535353535200200200200
CoverOVCBKNBKNBKNBKNBKNBKNBKNBKNBKNBKNBKNBKNBKN
FltCat--VFRVFRVFRVFRVFRVFRVFRVFRVFRVFRVFRVFRVFR
WX----------------------------
WDir330320320320320320320320320280VRBVRBVRBVRB
WSpd18141414141414141463333
WGst272222222222222222----------
R06/24
XWnd1814141414141414145VRBVRBVRBVRB
XGst272222222222222222----------
HWnd3-0-0-0-0-0-0-0-0-4VRBVRBVRBVRB
HGst5-0-0-0-0-0-0-0-0----------
R10/28
XWnd1510101010101010101VRBVRBVRBVRB
XGst231616161616161616----------
HWnd-10-10-10-10-10-10-10-10-10-6VRBVRBVRBVRB
HGst-15-15-15-15-15-15-15-15-15----------
Raw TAF
KCLE 301407Z 3014/3118 33015G25KT 6SM -SHSN BLSN SCT015 OVC035
  FM301600 32014G22KT P6SM SCT025 BKN035
  FM310100 28006KT P6SM SCT025 BKN035
  FM310200 VRB03KT P6SM SCT150 BKN200


Raw METAR
KCLE 301651Z 33018G27KT 10SM FEW026 OVC035 M08/M13 A3041 RMK AO2 PK WND 32027/1644 SLP309 T10831133 $
KCLE 301551Z 32017G24KT 10SM FEW024 OVC034 M08/M13 A3040 RMK AO2 PK WND 33029/1502 SLP304 T10831133 $

TAF Board Legend

Hazard VFR MVFR IFR LIFR
Visibility (sm) >5 3≤X≤5 1≤X<3 <1
Ceiling (100 ft) >30 10≤X≤30 5≤X<10 <5
Wind Speed (kt) <10 10≤X<20 20≤X<30 ≥30
Wind Gust (kt) <15 15≤X<25 25≤X<35 ≥35
Weather No Wx Reported VCTS,-TS,-FZRA TS,FZRA +TS,+FZRA


Page loaded:  17:00 UTC  |   09:00 AM Pacific  |   10:00 AM Mountain  |   11:00 AM Central  |   12:00 PM Eastern

 

ADVISORIES

FORECASTS

FORECASTS

OBSERVATIONS

USER TOOLS

ABOUT US